Swords, Ireland
Current Conditions -  °F | °C
As of 11:00 PM on Monday 24 Nov 2014 (Local Time) from EIDW Reporting Station
Broken Clouds Broken Clouds  
Wind Chill: 41°   Ceiling: 3500
Heat Index: 45°   Visibility: 6mi
Dew Point: 43°   Wind: 7mph
Humidity: 93%   Direction: 250°WSW
Pressure: 30.27"   Gusts: NA
Location:  53.45°N, 6.22°W
Report Text: EIDW 242300Z 25006KT 9999 FEW017 BKN035 07/06 Q1025 NOSIG
Loading
Personal Weather Stations






























Interactive Weather Map New forecast layout! Learn more

10-Day Weather Forecast

Advertisements
Track Severe Weather on mobile